sensor_id;sensor_type;location;lat;lon;timestamp;P1;durP1;ratioP1;P2;durP2;ratioP2
30068;SDS011;16894;49.456;10.644;2023-09-12T00:01:41;87.03;;;81.37;;
30068;SDS011;16894;49.456;10.644;2023-09-12T00:06:33;80.10;;;74.50;;
30068;SDS011;16894;49.456;10.644;2023-09-12T00:08:59;83.30;;;77.30;;
30068;SDS011;16894;49.456;10.644;2023-09-12T00:11:24;91.37;;;84.60;;
30068;SDS011;16894;49.456;10.644;2023-09-12T00:13:50;92.63;;;86.65;;
30068;SDS011;16894;49.456;10.644;2023-09-12T00:16:16;93.20;;;87.03;;
30068;SDS011;16894;49.456;10.644;2023-09-12T00:18:42;89.80;;;83.07;;
30068;SDS011;16894;49.456;10.644;2023-09-12T00:21:08;88.53;;;82.57;;
30068;SDS011;16894;49.456;10.644;2023-09-12T00:23:34;96.45;;;89.30;;
30068;SDS011;16894;49.456;10.644;2023-09-12T00:26:00;89.55;;;83.00;;
30068;SDS011;16894;49.456;10.644;2023-09-12T00:28:26;102.75;;;95.95;;
30068;SDS011;16894;49.456;10.644;2023-09-12T00:30:52;126.00;;;117.88;;
30068;SDS011;16894;49.456;10.644;2023-09-12T00:33:18;116.82;;;109.43;;
30068;SDS011;16894;49.456;10.644;2023-09-12T00:35:44;105.13;;;98.03;;
30068;SDS011;16894;49.456;10.644;2023-09-12T00:38:10;118.55;;;110.93;;
30068;SDS011;16894;49.456;10.644;2023-09-12T00:40:36;125.22;;;117.32;;
30068;SDS011;16894;49.456;10.644;2023-09-12T00:45:28;104.25;;;97.20;;
30068;SDS011;16894;49.456;10.644;2023-09-12T00:47:54;117.40;;;109.93;;
30068;SDS011;16894;49.456;10.644;2023-09-12T00:50:22;154.93;;;144.98;;
30068;SDS011;16894;49.456;10.644;2023-09-12T00:52:51;175.95;;;165.07;;
30068;SDS011;16894;49.456;10.644;2023-09-12T00:55:18;190.50;;;178.23;;
30068;SDS011;16894;49.456;10.644;2023-09-12T00:57:44;200.27;;;187.73;;
30068;SDS011;16894;49.456;10.644;2023-09-12T01:00:11;203.27;;;190.73;;
30068;SDS011;16894;49.456;10.644;2023-09-12T01:02:41;189.73;;;177.25;;
30068;SDS011;16894;49.456;10.644;2023-09-12T01:05:09;175.25;;;164.10;;
30068;SDS011;16894;49.456;10.644;2023-09-12T01:07:36;177.93;;;166.93;;
30068;SDS011;16894;49.456;10.644;2023-09-12T01:10:03;170.20;;;159.07;;
30068;SDS011;16894;49.456;10.644;2023-09-12T01:12:32;169.40;;;158.57;;
30068;SDS011;16894;49.456;10.644;2023-09-12T01:14:58;168.70;;;158.20;;
30068;SDS011;16894;49.456;10.644;2023-09-12T01:17:24;169.15;;;158.75;;
30068;SDS011;16894;49.456;10.644;2023-09-12T01:19:51;175.15;;;164.15;;
30068;SDS011;16894;49.456;10.644;2023-09-12T01:28:17;161.02;;;150.70;;
30068;SDS011;16894;49.456;10.644;2023-09-12T01:30:42;176.02;;;164.75;;
30068;SDS011;16894;49.456;10.644;2023-09-12T01:33:13;162.30;;;151.95;;
30068;SDS011;16894;49.456;10.644;2023-09-12T01:35:39;173.27;;;162.43;;
30068;SDS011;16894;49.456;10.644;2023-09-12T01:38:04;162.37;;;151.90;;
30068;SDS011;16894;49.456;10.644;2023-09-12T01:40:34;180.30;;;168.90;;
30068;SDS011;16894;49.456;10.644;2023-09-12T01:43:07;163.02;;;152.60;;
30068;SDS011;16894;49.456;10.644;2023-09-12T01:45:33;199.38;;;186.82;;
30068;SDS011;16894;49.456;10.644;2023-09-12T01:48:00;192.75;;;180.38;;
30068;SDS011;16894;49.456;10.644;2023-09-12T01:50:27;162.07;;;151.85;;
30068;SDS011;16894;49.456;10.644;2023-09-12T01:52:54;153.10;;;143.45;;
30068;SDS011;16894;49.456;10.644;2023-09-12T01:55:20;116.65;;;108.93;;
30068;SDS011;16894;49.456;10.644;2023-09-12T01:57:47;98.97;;;92.50;;
30068;SDS011;16894;49.456;10.644;2023-09-12T02:00:12;102.22;;;95.63;;
30068;SDS011;16894;49.456;10.644;2023-09-12T02:02:38;102.15;;;95.53;;
30068;SDS011;16894;49.456;10.644;2023-09-12T02:05:15;110.93;;;103.63;;
30068;SDS011;16894;49.456;10.644;2023-09-12T02:07:43;98.85;;;92.30;;
30068;SDS011;16894;49.456;10.644;2023-09-12T02:10:10;101.05;;;93.90;;
30068;SDS011;16894;49.456;10.644;2023-09-12T02:12:36;103.90;;;97.10;;
30068;SDS011;16894;49.456;10.644;2023-09-12T02:15:02;102.30;;;95.38;;
30068;SDS011;16894;49.456;10.644;2023-09-12T02:17:28;100.07;;;93.55;;
30068;SDS011;16894;49.456;10.644;2023-09-12T02:19:54;98.10;;;91.57;;
30068;SDS011;16894;49.456;10.644;2023-09-12T02:22:19;104.23;;;97.50;;
30068;SDS011;16894;49.456;10.644;2023-09-12T02:24:45;100.10;;;93.57;;
30068;SDS011;16894;49.456;10.644;2023-09-12T02:27:11;104.40;;;97.20;;
30068;SDS011;16894;49.456;10.644;2023-09-12T02:29:38;105.77;;;99.10;;
30068;SDS011;16894;49.456;10.644;2023-09-12T02:32:04;114.00;;;106.63;;
30068;SDS011;16894;49.456;10.644;2023-09-12T02:34:30;98.38;;;92.03;;
30068;SDS011;16894;49.456;10.644;2023-09-12T02:36:57;101.18;;;94.38;;
30068;SDS011;16894;49.456;10.644;2023-09-12T02:39:22;98.20;;;91.57;;
30068;SDS011;16894;49.456;10.644;2023-09-12T02:41:48;89.43;;;83.63;;
30068;SDS011;16894;49.456;10.644;2023-09-12T02:44:14;99.37;;;92.77;;
30068;SDS011;16894;49.456;10.644;2023-09-12T02:46:39;96.67;;;89.57;;
30068;SDS011;16894;49.456;10.644;2023-09-12T02:49:05;98.37;;;91.43;;
30068;SDS011;16894;49.456;10.644;2023-09-12T02:51:31;105.72;;;97.80;;
30068;SDS011;16894;49.456;10.644;2023-09-12T02:53:57;116.55;;;108.70;;
30068;SDS011;16894;49.456;10.644;2023-09-12T02:58:49;113.05;;;105.85;;
30068;SDS011;16894;49.456;10.644;2023-09-12T03:01:15;142.18;;;132.93;;
30068;SDS011;16894;49.456;10.644;2023-09-12T03:03:51;135.77;;;126.68;;
30068;SDS011;16894;49.456;10.644;2023-09-12T03:06:16;145.52;;;136.13;;
30068;SDS011;16894;49.456;10.644;2023-09-12T03:08:46;146.48;;;136.65;;
30068;SDS011;16894;49.456;10.644;2023-09-12T03:11:12;146.93;;;137.48;;
30068;SDS011;16894;49.456;10.644;2023-09-12T03:13:39;147.55;;;138.25;;
30068;SDS011;16894;49.456;10.644;2023-09-12T03:16:09;160.98;;;150.77;;
30068;SDS011;16894;49.456;10.644;2023-09-12T03:18:36;162.25;;;151.50;;
30068;SDS011;16894;49.456;10.644;2023-09-12T03:21:01;169.05;;;157.95;;
30068;SDS011;16894;49.456;10.644;2023-09-12T03:23:27;156.02;;;146.27;;
30068;SDS011;16894;49.456;10.644;2023-09-12T03:25:53;149.97;;;140.37;;
30068;SDS011;16894;49.456;10.644;2023-09-12T03:28:19;142.68;;;133.35;;
30068;SDS011;16894;49.456;10.644;2023-09-12T03:30:45;128.43;;;120.18;;
30068;SDS011;16894;49.456;10.644;2023-09-12T03:33:10;114.77;;;106.57;;
30068;SDS011;16894;49.456;10.644;2023-09-12T03:35:36;106.27;;;99.20;;
30068;SDS011;16894;49.456;10.644;2023-09-12T03:38:02;112.00;;;104.50;;
30068;SDS011;16894;49.456;10.644;2023-09-12T03:42:55;75.57;;;70.00;;
30068;SDS011;16894;49.456;10.644;2023-09-12T03:45:21;94.10;;;87.72;;
30068;SDS011;16894;49.456;10.644;2023-09-12T03:47:47;105.43;;;98.63;;
30068;SDS011;16894;49.456;10.644;2023-09-12T03:50:13;99.10;;;92.77;;
30068;SDS011;16894;49.456;10.644;2023-09-12T03:52:39;105.20;;;98.43;;
30068;SDS011;16894;49.456;10.644;2023-09-12T03:55:05;109.88;;;102.78;;
30068;SDS011;16894;49.456;10.644;2023-09-12T03:57:31;104.05;;;97.13;;
30068;SDS011;16894;49.456;10.644;2023-09-12T03:59:56;105.22;;;98.32;;
30068;SDS011;16894;49.456;10.644;2023-09-12T04:02:22;101.25;;;94.53;;
30068;SDS011;16894;49.456;10.644;2023-09-12T04:04:48;102.60;;;94.90;;
30068;SDS011;16894;49.456;10.644;2023-09-12T04:07:14;110.25;;;102.97;;
30068;SDS011;16894;49.456;10.644;2023-09-12T04:09:40;114.00;;;106.23;;
30068;SDS011;16894;49.456;10.644;2023-09-12T04:12:05;108.80;;;101.93;;
30068;SDS011;16894;49.456;10.644;2023-09-12T04:16:57;90.07;;;83.88;;
30068;SDS011;16894;49.456;10.644;2023-09-12T04:19:24;98.63;;;92.00;;
30068;SDS011;16894;49.456;10.644;2023-09-12T04:21:50;96.93;;;90.82;;
30068;SDS011;16894;49.456;10.644;2023-09-12T04:24:16;96.65;;;89.65;;
30068;SDS011;16894;49.456;10.644;2023-09-12T04:26:42;98.95;;;92.35;;
30068;SDS011;16894;49.456;10.644;2023-09-12T04:31:35;89.75;;;83.70;;
30068;SDS011;16894;49.456;10.644;2023-09-12T04:34:01;114.30;;;106.68;;
30068;SDS011;16894;49.456;10.644;2023-09-12T04:36:27;142.00;;;132.55;;
30068;SDS011;16894;49.456;10.644;2023-09-12T04:38:52;141.33;;;131.27;;
30068;SDS011;16894;49.456;10.644;2023-09-12T04:41:18;144.60;;;134.63;;
30068;SDS011;16894;49.456;10.644;2023-09-12T04:43:44;146.80;;;137.43;;
30068;SDS011;16894;49.456;10.644;2023-09-12T04:46:10;147.38;;;138.20;;
30068;SDS011;16894;49.456;10.644;2023-09-12T04:48:37;144.55;;;135.20;;
30068;SDS011;16894;49.456;10.644;2023-09-12T04:51:04;142.65;;;132.95;;
30068;SDS011;16894;49.456;10.644;2023-09-12T04:53:30;135.43;;;126.30;;
30068;SDS011;16894;49.456;10.644;2023-09-12T04:56:00;135.63;;;126.85;;
30068;SDS011;16894;49.456;10.644;2023-09-12T04:58:27;128.80;;;120.18;;
30068;SDS011;16894;49.456;10.644;2023-09-12T05:00:53;124.40;;;115.90;;
30068;SDS011;16894;49.456;10.644;2023-09-12T05:03:20;123.05;;;114.78;;
30068;SDS011;16894;49.456;10.644;2023-09-12T05:05:49;117.82;;;109.85;;
30068;SDS011;16894;49.456;10.644;2023-09-12T05:08:15;113.85;;;105.90;;
30068;SDS011;16894;49.456;10.644;2023-09-12T05:10:43;117.40;;;109.50;;
30068;SDS011;16894;49.456;10.644;2023-09-12T05:13:09;111.10;;;103.82;;
30068;SDS011;16894;49.456;10.644;2023-09-12T05:15:35;112.47;;;105.07;;
30068;SDS011;16894;49.456;10.644;2023-09-12T05:18:02;106.93;;;100.03;;
30068;SDS011;16894;49.456;10.644;2023-09-12T05:20:27;113.75;;;105.85;;
30068;SDS011;16894;49.456;10.644;2023-09-12T05:22:53;112.70;;;105.20;;
30068;SDS011;16894;49.456;10.644;2023-09-12T05:25:19;115.43;;;108.03;;
30068;SDS011;16894;49.456;10.644;2023-09-12T05:27:44;106.17;;;99.13;;
30068;SDS011;16894;49.456;10.644;2023-09-12T05:30:10;108.07;;;100.70;;
30068;SDS011;16894;49.456;10.644;2023-09-12T05:32:36;118.18;;;110.05;;
30068;SDS011;16894;49.456;10.644;2023-09-12T05:35:02;123.68;;;115.60;;
30068;SDS011;16894;49.456;10.644;2023-09-12T05:37:29;119.85;;;111.75;;
30068;SDS011;16894;49.456;10.644;2023-09-12T05:39:54;124.30;;;115.93;;
30068;SDS011;16894;49.456;10.644;2023-09-12T05:42:20;116.40;;;108.30;;
30068;SDS011;16894;49.456;10.644;2023-09-12T05:44:47;112.47;;;104.18;;
30068;SDS011;16894;49.456;10.644;2023-09-12T05:47:14;133.80;;;124.70;;
30068;SDS011;16894;49.456;10.644;2023-09-12T05:49:40;123.88;;;115.78;;
30068;SDS011;16894;49.456;10.644;2023-09-12T05:52:06;117.03;;;109.05;;
30068;SDS011;16894;49.456;10.644;2023-09-12T05:54:32;120.85;;;112.47;;
30068;SDS011;16894;49.456;10.644;2023-09-12T05:56:58;122.68;;;114.38;;
30068;SDS011;16894;49.456;10.644;2023-09-12T05:59:23;118.80;;;111.13;;
30068;SDS011;16894;49.456;10.644;2023-09-12T06:01:49;121.07;;;112.70;;
30068;SDS011;16894;49.456;10.644;2023-09-12T06:04:15;113.80;;;106.03;;
30068;SDS011;16894;49.456;10.644;2023-09-12T06:06:40;112.40;;;103.95;;
30068;SDS011;16894;49.456;10.644;2023-09-12T06:09:06;108.23;;;101.20;;
30068;SDS011;16894;49.456;10.644;2023-09-12T06:11:33;111.38;;;103.95;;
30068;SDS011;16894;49.456;10.644;2023-09-12T06:13:59;113.47;;;105.60;;
30068;SDS011;16894;49.456;10.644;2023-09-12T06:16:25;123.77;;;114.73;;
30068;SDS011;16894;49.456;10.644;2023-09-12T06:18:51;113.10;;;105.60;;
30068;SDS011;16894;49.456;10.644;2023-09-12T06:21:18;117.88;;;110.07;;
30068;SDS011;16894;49.456;10.644;2023-09-12T06:23:46;117.53;;;108.90;;
30068;SDS011;16894;49.456;10.644;2023-09-12T06:26:12;126.22;;;117.97;;
30068;SDS011;16894;49.456;10.644;2023-09-12T06:28:38;128.45;;;119.80;;
30068;SDS011;16894;49.456;10.644;2023-09-12T06:31:03;136.35;;;127.00;;
30068;SDS011;16894;49.456;10.644;2023-09-12T06:33:34;143.30;;;133.20;;
30068;SDS011;16894;49.456;10.644;2023-09-12T06:36:00;151.38;;;141.38;;
30068;SDS011;16894;49.456;10.644;2023-09-12T06:38:25;170.50;;;159.33;;
30068;SDS011;16894;49.456;10.644;2023-09-12T06:40:51;178.10;;;166.63;;
30068;SDS011;16894;49.456;10.644;2023-09-12T06:43:17;178.43;;;166.83;;
30068;SDS011;16894;49.456;10.644;2023-09-12T06:45:43;180.55;;;168.75;;
30068;SDS011;16894;49.456;10.644;2023-09-12T06:48:09;201.18;;;187.70;;
30068;SDS011;16894;49.456;10.644;2023-09-12T06:50:35;173.38;;;162.32;;
30068;SDS011;16894;49.456;10.644;2023-09-12T06:53:03;166.88;;;154.18;;
30068;SDS011;16894;49.456;10.644;2023-09-12T06:55:31;166.02;;;155.23;;
30068;SDS011;16894;49.456;10.644;2023-09-12T06:57:57;164.45;;;153.40;;
30068;SDS011;16894;49.456;10.644;2023-09-12T07:00:23;164.70;;;153.68;;
30068;SDS011;16894;49.456;10.644;2023-09-12T07:02:49;162.13;;;150.88;;
30068;SDS011;16894;49.456;10.644;2023-09-12T07:05:15;177.43;;;165.47;;
30068;SDS011;16894;49.456;10.644;2023-09-12T07:07:40;171.30;;;159.80;;
30068;SDS011;16894;49.456;10.644;2023-09-12T07:10:06;185.83;;;173.37;;
30068;SDS011;16894;49.456;10.644;2023-09-12T07:12:32;190.45;;;178.27;;
30068;SDS011;16894;49.456;10.644;2023-09-12T07:14:58;190.20;;;177.70;;
30068;SDS011;16894;49.456;10.644;2023-09-12T07:17:23;186.77;;;174.18;;
30068;SDS011;16894;49.456;10.644;2023-09-12T07:19:52;183.45;;;171.38;;
30068;SDS011;16894;49.456;10.644;2023-09-12T07:22:18;172.20;;;160.52;;
30068;SDS011;16894;49.456;10.644;2023-09-12T07:24:44;163.57;;;152.73;;
30068;SDS011;16894;49.456;10.644;2023-09-12T07:27:09;160.73;;;150.07;;
30068;SDS011;16894;49.456;10.644;2023-09-12T07:29:35;153.50;;;143.40;;
30068;SDS011;16894;49.456;10.644;2023-09-12T07:32:00;146.82;;;136.20;;
30068;SDS011;16894;49.456;10.644;2023-09-12T07:34:27;139.20;;;129.65;;
30068;SDS011;16894;49.456;10.644;2023-09-12T07:36:53;132.32;;;123.18;;
30068;SDS011;16894;49.456;10.644;2023-09-12T07:39:19;136.60;;;126.72;;
30068;SDS011;16894;49.456;10.644;2023-09-12T07:41:45;155.25;;;144.95;;
30068;SDS011;16894;49.456;10.644;2023-09-12T07:44:11;165.55;;;154.35;;
30068;SDS011;16894;49.456;10.644;2023-09-12T07:46:40;184.35;;;171.50;;
30068;SDS011;16894;49.456;10.644;2023-09-12T07:49:06;199.15;;;185.38;;
30068;SDS011;16894;49.456;10.644;2023-09-12T07:51:33;160.40;;;149.50;;
30068;SDS011;16894;49.456;10.644;2023-09-12T07:53:59;113.05;;;104.32;;
30068;SDS011;16894;49.456;10.644;2023-09-12T07:56:24;110.68;;;102.07;;
30068;SDS011;16894;49.456;10.644;2023-09-12T07:58:50;100.72;;;93.35;;
30068;SDS011;16894;49.456;10.644;2023-09-12T08:01:16;98.47;;;90.25;;
30068;SDS011;16894;49.456;10.644;2023-09-12T08:03:42;101.97;;;95.00;;
30068;SDS011;16894;49.456;10.644;2023-09-12T08:06:09;83.57;;;77.38;;
30068;SDS011;16894;49.456;10.644;2023-09-12T08:08:34;98.45;;;91.15;;
30068;SDS011;16894;49.456;10.644;2023-09-12T08:11:00;111.10;;;103.25;;
30068;SDS011;16894;49.456;10.644;2023-09-12T08:13:27;105.47;;;97.85;;
30068;SDS011;16894;49.456;10.644;2023-09-12T08:15:54;110.45;;;102.63;;
30068;SDS011;16894;49.456;10.644;2023-09-12T08:18:20;141.73;;;129.90;;
30068;SDS011;16894;49.456;10.644;2023-09-12T08:20:46;222.30;;;206.90;;
30068;SDS011;16894;49.456;10.644;2023-09-12T08:23:11;548.05;;;507.80;;
30068;SDS011;16894;49.456;10.644;2023-09-12T08:25:38;967.00;;;886.25;;
30068;SDS011;16894;49.456;10.644;2023-09-12T08:28:05;1037.68;;;947.35;;
30068;SDS011;16894;49.456;10.644;2023-09-12T08:30:30;1142.10;;;999.90;;
30068;SDS011;16894;49.456;10.644;2023-09-12T08:32:57;1585.45;;;999.90;;
30068;SDS011;16894;49.456;10.644;2023-09-12T08:35:23;1999.90;;;999.90;;
30068;SDS011;16894;49.456;10.644;2023-09-12T08:37:51;1999.90;;;999.90;;
30068;SDS011;16894;49.456;10.644;2023-09-12T08:40:17;1999.90;;;999.90;;
30068;SDS011;16894;49.456;10.644;2023-09-12T08:42:43;1999.90;;;999.90;;
30068;SDS011;16894;49.456;10.644;2023-09-12T08:45:16;1999.90;;;999.90;;
30068;SDS011;16894;49.456;10.644;2023-09-12T08:47:44;1999.90;;;999.90;;
30068;SDS011;16894;49.456;10.644;2023-09-12T08:50:11;1999.90;;;999.90;;
30068;SDS011;16894;49.456;10.644;2023-09-12T08:52:38;1999.90;;;910.55;;
30068;SDS011;16894;49.456;10.644;2023-09-12T08:55:05;1694.50;;;765.30;;
30068;SDS011;16894;49.456;10.644;2023-09-12T08:57:32;1999.90;;;999.90;;
30068;SDS011;16894;49.456;10.644;2023-09-12T08:59:58;1999.90;;;999.90;;
30068;SDS011;16894;49.456;10.644;2023-09-12T09:02:34;1999.90;;;999.90;;
30068;SDS011;16894;49.456;10.644;2023-09-12T09:05:01;1999.90;;;999.90;;
30068;SDS011;16894;49.456;10.644;2023-09-12T09:07:34;1999.90;;;999.90;;
30068;SDS011;16894;49.456;10.644;2023-09-12T09:10:05;1999.90;;;999.90;;
30068;SDS011;16894;49.456;10.644;2023-09-12T09:12:32;1999.90;;;999.90;;
30068;SDS011;16894;49.456;10.644;2023-09-12T09:15:23;1999.90;;;999.90;;
30068;SDS011;16894;49.456;10.644;2023-09-12T09:17:51;1999.90;;;999.90;;
30068;SDS011;16894;49.456;10.644;2023-09-12T09:22:56;1999.90;;;999.90;;
30068;SDS011;16894;49.456;10.644;2023-09-12T09:25:30;1999.90;;;999.90;;
30068;SDS011;16894;49.456;10.644;2023-09-12T09:27:57;1999.90;;;999.90;;
30068;SDS011;16894;49.456;10.644;2023-09-12T09:30:38;1999.90;;;999.90;;
30068;SDS011;16894;49.456;10.644;2023-09-12T09:33:12;1999.90;;;999.90;;
30068;SDS011;16894;49.456;10.644;2023-09-12T09:35:41;1999.90;;;999.90;;
30068;SDS011;16894;49.456;10.644;2023-09-12T09:38:07;1999.90;;;999.90;;
30068;SDS011;16894;49.456;10.644;2023-09-12T09:40:34;1999.90;;;999.90;;
30068;SDS011;16894;49.456;10.644;2023-09-12T09:43:01;1999.90;;;999.90;;
30068;SDS011;16894;49.456;10.644;2023-09-12T09:45:29;1999.90;;;999.90;;
30068;SDS011;16894;49.456;10.644;2023-09-12T09:48:03;1999.90;;;999.90;;
30068;SDS011;16894;49.456;10.644;2023-09-12T09:50:33;1999.90;;;999.90;;
30068;SDS011;16894;49.456;10.644;2023-09-12T09:53:02;1999.90;;;999.90;;
30068;SDS011;16894;49.456;10.644;2023-09-12T09:55:29;1999.90;;;999.90;;
30068;SDS011;16894;49.456;10.644;2023-09-12T10:00:22;1999.90;;;999.90;;
30068;SDS011;16894;49.456;10.644;2023-09-12T10:02:48;1999.90;;;999.90;;
30068;SDS011;16894;49.456;10.644;2023-09-12T10:05:16;1999.90;;;999.90;;
30068;SDS011;16894;49.456;10.644;2023-09-12T10:10:11;1999.90;;;999.90;;
30068;SDS011;16894;49.456;10.644;2023-09-12T10:15:08;1999.90;;;999.90;;
30068;SDS011;16894;49.456;10.644;2023-09-12T10:17:37;1999.90;;;999.90;;
30068;SDS011;16894;49.456;10.644;2023-09-12T10:20:05;1999.90;;;999.90;;
30068;SDS011;16894;49.456;10.644;2023-09-12T10:22:40;1999.90;;;999.90;;
30068;SDS011;16894;49.456;10.644;2023-09-12T10:25:17;1999.90;;;999.90;;
30068;SDS011;16894;49.456;10.644;2023-09-12T10:30:08;1999.90;;;999.90;;
30068;SDS011;16894;49.456;10.644;2023-09-12T10:32:35;1999.90;;;999.90;;
30068;SDS011;16894;49.456;10.644;2023-09-12T10:35:04;1999.90;;;999.90;;
30068;SDS011;16894;49.456;10.644;2023-09-12T10:37:33;1999.90;;;999.90;;
30068;SDS011;16894;49.456;10.644;2023-09-12T10:40:01;1999.90;;;999.90;;
30068;SDS011;16894;49.456;10.644;2023-09-12T10:42:31;1999.90;;;999.90;;
30068;SDS011;16894;49.456;10.644;2023-09-12T10:44:58;1999.90;;;999.90;;
30068;SDS011;16894;49.456;10.644;2023-09-12T10:47:25;1999.90;;;999.90;;
30068;SDS011;16894;49.456;10.644;2023-09-12T10:49:52;1999.90;;;999.90;;
30068;SDS011;16894;49.456;10.644;2023-09-12T10:52:27;1999.90;;;999.90;;
30068;SDS011;16894;49.456;10.644;2023-09-12T10:54:53;1999.90;;;999.90;;
30068;SDS011;16894;49.456;10.644;2023-09-12T10:57:20;1999.90;;;999.90;;
30068;SDS011;16894;49.456;10.644;2023-09-12T11:00:10;1999.90;;;999.90;;
30068;SDS011;16894;49.456;10.644;2023-09-12T11:02:39;1999.90;;;999.90;;
30068;SDS011;16894;49.456;10.644;2023-09-12T11:05:05;1999.90;;;999.90;;
30068;SDS011;16894;49.456;10.644;2023-09-12T11:07:52;1999.90;;;999.90;;
30068;SDS011;16894;49.456;10.644;2023-09-12T11:10:23;1999.90;;;999.90;;
30068;SDS011;16894;49.456;10.644;2023-09-12T11:12:52;1999.90;;;999.90;;
30068;SDS011;16894;49.456;10.644;2023-09-12T11:15:19;1999.90;;;999.90;;
30068;SDS011;16894;49.456;10.644;2023-09-12T11:17:47;1999.90;;;999.90;;
30068;SDS011;16894;49.456;10.644;2023-09-12T11:20:15;1999.90;;;999.90;;
30068;SDS011;16894;49.456;10.644;2023-09-12T11:22:43;1999.90;;;999.90;;
30068;SDS011;16894;49.456;10.644;2023-09-12T11:25:25;1999.90;;;999.90;;
30068;SDS011;16894;49.456;10.644;2023-09-12T11:30:18;1999.90;;;999.90;;
30068;SDS011;16894;49.456;10.644;2023-09-12T11:32:48;1999.90;;;999.90;;
30068;SDS011;16894;49.456;10.644;2023-09-12T11:35:16;1999.90;;;999.90;;
30068;SDS011;16894;49.456;10.644;2023-09-12T11:37:50;1999.90;;;999.90;;
30068;SDS011;16894;49.456;10.644;2023-09-12T11:40:24;1999.90;;;999.90;;
30068;SDS011;16894;49.456;10.644;2023-09-12T11:42:51;1999.90;;;999.90;;
30068;SDS011;16894;49.456;10.644;2023-09-12T11:45:18;1999.90;;;999.90;;
30068;SDS011;16894;49.456;10.644;2023-09-12T11:47:46;1999.90;;;999.90;;
30068;SDS011;16894;49.456;10.644;2023-09-12T11:53:03;1999.90;;;999.90;;
30068;SDS011;16894;49.456;10.644;2023-09-12T11:55:37;1999.90;;;999.90;;
30068;SDS011;16894;49.456;10.644;2023-09-12T11:58:12;1999.90;;;999.90;;
30068;SDS011;16894;49.456;10.644;2023-09-12T12:00:46;1999.90;;;999.90;;
30068;SDS011;16894;49.456;10.644;2023-09-12T12:03:14;1999.90;;;999.90;;
30068;SDS011;16894;49.456;10.644;2023-09-12T12:05:41;1999.90;;;999.90;;
30068;SDS011;16894;49.456;10.644;2023-09-12T12:08:07;1999.90;;;999.90;;
30068;SDS011;16894;49.456;10.644;2023-09-12T12:10:34;1999.90;;;999.90;;
30068;SDS011;16894;49.456;10.644;2023-09-12T12:13:00;1999.90;;;999.90;;
30068;SDS011;16894;49.456;10.644;2023-09-12T12:15:28;1999.90;;;999.90;;
30068;SDS011;16894;49.456;10.644;2023-09-12T12:17:54;1999.90;;;999.90;;
30068;SDS011;16894;49.456;10.644;2023-09-12T12:20:21;1999.90;;;999.90;;
30068;SDS011;16894;49.456;10.644;2023-09-12T12:22:48;1999.90;;;999.90;;
30068;SDS011;16894;49.456;10.644;2023-09-12T12:25:14;1999.90;;;999.90;;
30068;SDS011;16894;49.456;10.644;2023-09-12T12:27:40;1999.90;;;999.90;;
30068;SDS011;16894;49.456;10.644;2023-09-12T12:30:07;1999.90;;;999.90;;
30068;SDS011;16894;49.456;10.644;2023-09-12T12:32:44;1999.90;;;999.90;;
30068;SDS011;16894;49.456;10.644;2023-09-12T12:35:18;1999.90;;;999.90;;
30068;SDS011;16894;49.456;10.644;2023-09-12T12:37:44;1999.90;;;999.90;;
30068;SDS011;16894;49.456;10.644;2023-09-12T12:40:14;1999.90;;;999.90;;
30068;SDS011;16894;49.456;10.644;2023-09-12T12:42:41;1999.90;;;999.90;;
30068;SDS011;16894;49.456;10.644;2023-09-12T12:45:14;1999.90;;;999.90;;
30068;SDS011;16894;49.456;10.644;2023-09-12T12:47:41;1999.90;;;999.90;;
30068;SDS011;16894;49.456;10.644;2023-09-12T12:50:10;1999.90;;;999.90;;
30068;SDS011;16894;49.456;10.644;2023-09-12T12:52:40;1999.90;;;999.90;;
30068;SDS011;16894;49.456;10.644;2023-09-12T12:55:11;1999.90;;;999.90;;
30068;SDS011;16894;49.456;10.644;2023-09-12T12:57:38;1999.90;;;999.90;;
30068;SDS011;16894;49.456;10.644;2023-09-12T13:00:07;1999.90;;;999.90;;
30068;SDS011;16894;49.456;10.644;2023-09-12T13:02:37;1999.90;;;999.90;;
30068;SDS011;16894;49.456;10.644;2023-09-12T13:05:04;1999.90;;;999.90;;
30068;SDS011;16894;49.456;10.644;2023-09-12T13:07:33;1999.90;;;999.90;;
30068;SDS011;16894;49.456;10.644;2023-09-12T13:10:00;1999.90;;;999.90;;
30068;SDS011;16894;49.456;10.644;2023-09-12T13:12:28;1999.90;;;999.90;;
30068;SDS011;16894;49.456;10.644;2023-09-12T13:14:54;1999.90;;;999.90;;
30068;SDS011;16894;49.456;10.644;2023-09-12T13:17:19;1999.90;;;999.90;;
30068;SDS011;16894;49.456;10.644;2023-09-12T13:19:45;1999.90;;;999.90;;
30068;SDS011;16894;49.456;10.644;2023-09-12T13:22:11;1999.90;;;999.90;;
30068;SDS011;16894;49.456;10.644;2023-09-12T13:24:36;1999.90;;;999.90;;
30068;SDS011;16894;49.456;10.644;2023-09-12T13:27:02;1999.90;;;999.90;;
30068;SDS011;16894;49.456;10.644;2023-09-12T13:29:28;1999.90;;;999.90;;
30068;SDS011;16894;49.456;10.644;2023-09-12T13:31:54;1999.90;;;999.90;;
30068;SDS011;16894;49.456;10.644;2023-09-12T13:34:38;1999.90;;;999.90;;
30068;SDS011;16894;49.456;10.644;2023-09-12T13:39:52;1999.90;;;999.90;;
30068;SDS011;16894;49.456;10.644;2023-09-12T13:42:19;1999.90;;;999.90;;
30068;SDS011;16894;49.456;10.644;2023-09-12T13:44:49;1999.90;;;999.90;;
30068;SDS011;16894;49.456;10.644;2023-09-12T13:47:15;1999.90;;;999.90;;
30068;SDS011;16894;49.456;10.644;2023-09-12T13:49:47;1999.90;;;999.90;;
30068;SDS011;16894;49.456;10.644;2023-09-12T13:52:13;1999.90;;;999.90;;
30068;SDS011;16894;49.456;10.644;2023-09-12T13:54:42;1999.90;;;999.90;;
30068;SDS011;16894;49.456;10.644;2023-09-12T13:57:07;1999.90;;;999.90;;
30068;SDS011;16894;49.456;10.644;2023-09-12T13:59:33;1999.90;;;999.90;;
30068;SDS011;16894;49.456;10.644;2023-09-12T14:01:59;1999.90;;;999.90;;
30068;SDS011;16894;49.456;10.644;2023-09-12T14:04:25;1999.90;;;999.90;;
30068;SDS011;16894;49.456;10.644;2023-09-12T14:06:50;1999.90;;;999.90;;
30068;SDS011;16894;49.456;10.644;2023-09-12T14:09:18;1999.90;;;999.90;;
30068;SDS011;16894;49.456;10.644;2023-09-12T14:11:44;1999.90;;;999.90;;
30068;SDS011;16894;49.456;10.644;2023-09-12T14:14:11;1999.90;;;999.90;;
30068;SDS011;16894;49.456;10.644;2023-09-12T14:16:37;1999.90;;;999.90;;
30068;SDS011;16894;49.456;10.644;2023-09-12T14:19:03;1999.90;;;999.90;;
30068;SDS011;16894;49.456;10.644;2023-09-12T14:21:29;1999.90;;;999.90;;
30068;SDS011;16894;49.456;10.644;2023-09-12T14:23:54;1999.90;;;999.90;;
30068;SDS011;16894;49.456;10.644;2023-09-12T14:26:20;1999.90;;;999.90;;